sensor_id;sensor_type;location;lat;lon;timestamp;P1;durP1;ratioP1;P2;durP2;ratioP2
56680;SDS011;42558;52.388;13.390;2024-03-02T00:02:06;89.11;;;49.97;;
56680;SDS011;42558;52.388;13.390;2024-03-02T00:04:36;81.89;;;48.26;;
56680;SDS011;42558;52.388;13.390;2024-03-02T00:07:07;87.97;;;48.83;;
56680;SDS011;42558;52.388;13.390;2024-03-02T00:09:37;83.41;;;48.26;;
56680;SDS011;42558;52.388;13.390;2024-03-02T00:12:08;93.10;;;49.02;;
56680;SDS011;42558;52.388;13.390;2024-03-02T00:14:42;85.31;;;48.07;;
56680;SDS011;42558;52.388;13.390;2024-03-02T00:17:17;89.30;;;49.21;;
56680;SDS011;42558;52.388;13.390;2024-03-02T00:19:54;86.64;;;49.97;;
56680;SDS011;42558;52.388;13.390;2024-03-02T00:22:24;100.13;;;48.83;;
56680;SDS011;42558;52.388;13.390;2024-03-02T00:24:54;95.95;;;51.49;;
56680;SDS011;42558;52.388;13.390;2024-03-02T00:27:24;92.53;;;49.21;;
56680;SDS011;42558;52.388;13.390;2024-03-02T00:29:54;89.30;;;49.02;;
56680;SDS011;42558;52.388;13.390;2024-03-02T00:32:25;87.59;;;47.88;;
56680;SDS011;42558;52.388;13.390;2024-03-02T00:34:58;91.77;;;48.45;;
56680;SDS011;42558;52.388;13.390;2024-03-02T00:37:28;91.20;;;51.11;;
56680;SDS011;42558;52.388;13.390;2024-03-02T00:39:59;89.68;;;49.97;;
56680;SDS011;42558;52.388;13.390;2024-03-02T00:42:31;88.16;;;48.83;;
56680;SDS011;42558;52.388;13.390;2024-03-02T00:45:07;87.40;;;48.83;;
56680;SDS011;42558;52.388;13.390;2024-03-02T00:47:40;88.92;;;50.16;;
56680;SDS011;42558;52.388;13.390;2024-03-02T00:50:10;83.60;;;49.97;;
56680;SDS011;42558;52.388;13.390;2024-03-02T00:52:52;83.98;;;47.69;;
56680;SDS011;42558;52.388;13.390;2024-03-02T00:55:22;88.54;;;50.35;;
56680;SDS011;42558;52.388;13.390;2024-03-02T00:57:51;88.92;;;48.64;;
56680;SDS011;42558;52.388;13.390;2024-03-02T01:00:21;89.49;;;49.40;;
56680;SDS011;42558;52.388;13.390;2024-03-02T01:02:52;95.00;;;49.59;;
56680;SDS011;42558;52.388;13.390;2024-03-02T01:05:22;87.02;;;49.21;;
56680;SDS011;42558;52.388;13.390;2024-03-02T01:07:51;89.49;;;49.21;;
56680;SDS011;42558;52.388;13.390;2024-03-02T01:10:21;82.08;;;48.26;;
56680;SDS011;42558;52.388;13.390;2024-03-02T01:12:51;92.53;;;48.64;;
56680;SDS011;42558;52.388;13.390;2024-03-02T01:15:21;87.40;;;48.07;;
56680;SDS011;42558;52.388;13.390;2024-03-02T01:17:51;89.87;;;50.54;;
56680;SDS011;42558;52.388;13.390;2024-03-02T01:20:24;90.63;;;51.30;;
56680;SDS011;42558;52.388;13.390;2024-03-02T01:22:54;86.64;;;49.40;;
56680;SDS011;42558;52.388;13.390;2024-03-02T01:25:25;89.87;;;51.49;;
56680;SDS011;42558;52.388;13.390;2024-03-02T01:27:54;87.59;;;49.40;;
56680;SDS011;42558;52.388;13.390;2024-03-02T01:30:24;83.03;;;47.88;;
56680;SDS011;42558;52.388;13.390;2024-03-02T01:32:54;87.97;;;49.59;;
56680;SDS011;42558;52.388;13.390;2024-03-02T01:35:24;88.54;;;50.35;;
56680;SDS011;42558;52.388;13.390;2024-03-02T01:37:56;89.87;;;51.49;;
56680;SDS011;42558;52.388;13.390;2024-03-02T01:40:26;89.87;;;50.35;;
56680;SDS011;42558;52.388;13.390;2024-03-02T01:42:56;90.25;;;51.49;;
56680;SDS011;42558;52.388;13.390;2024-03-02T01:45:28;86.07;;;50.35;;
56680;SDS011;42558;52.388;13.390;2024-03-02T01:47:59;85.88;;;52.44;;
56680;SDS011;42558;52.388;13.390;2024-03-02T01:50:31;92.15;;;53.20;;
56680;SDS011;42558;52.388;13.390;2024-03-02T01:53:02;90.63;;;52.25;;
56680;SDS011;42558;52.388;13.390;2024-03-02T01:55:32;95.95;;;50.92;;
56680;SDS011;42558;52.388;13.390;2024-03-02T01:58:04;87.78;;;50.73;;
56680;SDS011;42558;52.388;13.390;2024-03-02T02:00:34;91.39;;;50.92;;
56680;SDS011;42558;52.388;13.390;2024-03-02T02:03:05;95.19;;;53.58;;
56680;SDS011;42558;52.388;13.390;2024-03-02T02:05:36;88.92;;;50.54;;
56680;SDS011;42558;52.388;13.390;2024-03-02T02:08:06;94.62;;;52.63;;
56680;SDS011;42558;52.388;13.390;2024-03-02T02:10:34;95.00;;;51.87;;
56680;SDS011;42558;52.388;13.390;2024-03-02T02:13:03;101.27;;;53.20;;
56680;SDS011;42558;52.388;13.390;2024-03-02T02:15:31;96.90;;;56.43;;
56680;SDS011;42558;52.388;13.390;2024-03-02T02:18:03;111.34;;;62.13;;
56680;SDS011;42558;52.388;13.390;2024-03-02T02:20:31;107.54;;;58.14;;
56680;SDS011;42558;52.388;13.390;2024-03-02T02:23:01;110.20;;;60.99;;
56680;SDS011;42558;52.388;13.390;2024-03-02T02:25:32;105.07;;;59.09;;
56680;SDS011;42558;52.388;13.390;2024-03-02T02:28:02;110.01;;;59.09;;
56680;SDS011;42558;52.388;13.390;2024-03-02T02:30:32;106.21;;;59.47;;
56680;SDS011;42558;52.388;13.390;2024-03-02T02:33:03;101.65;;;56.05;;
56680;SDS011;42558;52.388;13.390;2024-03-02T02:35:33;105.64;;;56.43;;
56680;SDS011;42558;52.388;13.390;2024-03-02T02:38:02;111.91;;;61.56;;
56680;SDS011;42558;52.388;13.390;2024-03-02T02:40:33;106.21;;;58.14;;
56680;SDS011;42558;52.388;13.390;2024-03-02T02:43:03;111.15;;;57.19;;
56680;SDS011;42558;52.388;13.390;2024-03-02T02:45:33;117.42;;;60.80;;
56680;SDS011;42558;52.388;13.390;2024-03-02T02:48:03;105.83;;;58.14;;
56680;SDS011;42558;52.388;13.390;2024-03-02T02:50:34;111.72;;;61.18;;
56680;SDS011;42558;52.388;13.390;2024-03-02T02:53:05;116.28;;;61.18;;
56680;SDS011;42558;52.388;13.390;2024-03-02T02:55:35;108.68;;;57.00;;
56680;SDS011;42558;52.388;13.390;2024-03-02T02:58:10;109.82;;;59.47;;
56680;SDS011;42558;52.388;13.390;2024-03-02T03:00:40;111.34;;;58.14;;
56680;SDS011;42558;52.388;13.390;2024-03-02T03:03:10;107.73;;;56.43;;
56680;SDS011;42558;52.388;13.390;2024-03-02T03:05:40;115.71;;;60.61;;
56680;SDS011;42558;52.388;13.390;2024-03-02T03:08:10;108.87;;;57.95;;
56680;SDS011;42558;52.388;13.390;2024-03-02T03:10:40;112.10;;;60.04;;
56680;SDS011;42558;52.388;13.390;2024-03-02T03:13:10;107.35;;;58.33;;
56680;SDS011;42558;52.388;13.390;2024-03-02T03:15:40;107.92;;;59.09;;
56680;SDS011;42558;52.388;13.390;2024-03-02T03:18:10;113.62;;;62.13;;
56680;SDS011;42558;52.388;13.390;2024-03-02T03:20:40;119.70;;;59.47;;
56680;SDS011;42558;52.388;13.390;2024-03-02T03:23:10;112.29;;;61.18;;
56680;SDS011;42558;52.388;13.390;2024-03-02T03:25:44;117.04;;;60.42;;
56680;SDS011;42558;52.388;13.390;2024-03-02T03:28:14;109.06;;;59.28;;
56680;SDS011;42558;52.388;13.390;2024-03-02T03:30:44;102.41;;;57.76;;
56680;SDS011;42558;52.388;13.390;2024-03-02T03:33:14;107.35;;;56.81;;
56680;SDS011;42558;52.388;13.390;2024-03-02T03:35:44;107.73;;;58.90;;
56680;SDS011;42558;52.388;13.390;2024-03-02T03:38:14;113.05;;;57.76;;
56680;SDS011;42558;52.388;13.390;2024-03-02T03:40:43;111.53;;;59.47;;
56680;SDS011;42558;52.388;13.390;2024-03-02T03:43:14;114.38;;;60.61;;
56680;SDS011;42558;52.388;13.390;2024-03-02T03:45:44;105.07;;;58.14;;
56680;SDS011;42558;52.388;13.390;2024-03-02T03:48:14;115.33;;;60.99;;
56680;SDS011;42558;52.388;13.390;2024-03-02T03:50:44;110.77;;;58.90;;
56680;SDS011;42558;52.388;13.390;2024-03-02T03:53:14;106.59;;;59.09;;
56680;SDS011;42558;52.388;13.390;2024-03-02T03:55:44;107.73;;;59.47;;
56680;SDS011;42558;52.388;13.390;2024-03-02T03:58:16;102.22;;;55.86;;
56680;SDS011;42558;52.388;13.390;2024-03-02T04:00:51;101.65;;;55.86;;
56680;SDS011;42558;52.388;13.390;2024-03-02T04:03:21;107.35;;;59.28;;
56680;SDS011;42558;52.388;13.390;2024-03-02T04:05:51;96.90;;;55.48;;
56680;SDS011;42558;52.388;13.390;2024-03-02T04:08:21;104.88;;;56.05;;
56680;SDS011;42558;52.388;13.390;2024-03-02T04:10:51;109.44;;;57.00;;
56680;SDS011;42558;52.388;13.390;2024-03-02T04:13:21;100.13;;;55.10;;
56680;SDS011;42558;52.388;13.390;2024-03-02T04:15:51;93.86;;;53.20;;
56680;SDS011;42558;52.388;13.390;2024-03-02T04:18:22;104.88;;;55.86;;
56680;SDS011;42558;52.388;13.390;2024-03-02T04:20:51;105.07;;;58.14;;
56680;SDS011;42558;52.388;13.390;2024-03-02T04:23:22;101.27;;;56.24;;
56680;SDS011;42558;52.388;13.390;2024-03-02T04:25:52;100.13;;;56.81;;
56680;SDS011;42558;52.388;13.390;2024-03-02T04:28:22;101.08;;;56.62;;
56680;SDS011;42558;52.388;13.390;2024-03-02T04:30:52;100.70;;;56.24;;
56680;SDS011;42558;52.388;13.390;2024-03-02T04:33:22;96.14;;;52.63;;
56680;SDS011;42558;52.388;13.390;2024-03-02T04:35:52;104.69;;;58.33;;
56680;SDS011;42558;52.388;13.390;2024-03-02T04:38:22;106.40;;;56.24;;
56680;SDS011;42558;52.388;13.390;2024-03-02T04:40:52;90.63;;;53.77;;
56680;SDS011;42558;52.388;13.390;2024-03-02T04:43:22;100.32;;;52.06;;
56680;SDS011;42558;52.388;13.390;2024-03-02T04:45:52;106.02;;;53.77;;
56680;SDS011;42558;52.388;13.390;2024-03-02T04:48:22;105.26;;;55.86;;
56680;SDS011;42558;52.388;13.390;2024-03-02T04:50:52;97.85;;;53.20;;
56680;SDS011;42558;52.388;13.390;2024-03-02T04:53:22;96.33;;;55.29;;
56680;SDS011;42558;52.388;13.390;2024-03-02T04:55:52;102.79;;;56.81;;
56680;SDS011;42558;52.388;13.390;2024-03-02T04:58:41;104.50;;;58.71;;
56680;SDS011;42558;52.388;13.390;2024-03-02T05:01:11;110.39;;;59.66;;
56680;SDS011;42558;52.388;13.390;2024-03-02T05:03:42;103.74;;;53.58;;
56680;SDS011;42558;52.388;13.390;2024-03-02T05:06:12;109.63;;;56.81;;
56680;SDS011;42558;52.388;13.390;2024-03-02T05:08:42;102.79;;;55.29;;
56680;SDS011;42558;52.388;13.390;2024-03-02T05:11:11;106.02;;;58.33;;
56680;SDS011;42558;52.388;13.390;2024-03-02T05:14:00;95.76;;;54.91;;
56680;SDS011;42558;52.388;13.390;2024-03-02T05:16:34;100.70;;;56.24;;
56680;SDS011;42558;52.388;13.390;2024-03-02T05:19:05;98.23;;;55.48;;
56680;SDS011;42558;52.388;13.390;2024-03-02T05:21:36;109.44;;;58.71;;
56680;SDS011;42558;52.388;13.390;2024-03-02T05:24:06;101.08;;;55.67;;
56680;SDS011;42558;52.388;13.390;2024-03-02T05:26:36;100.89;;;54.72;;
56680;SDS011;42558;52.388;13.390;2024-03-02T05:29:06;90.63;;;50.92;;
56680;SDS011;42558;52.388;13.390;2024-03-02T05:31:36;94.62;;;53.39;;
56680;SDS011;42558;52.388;13.390;2024-03-02T05:34:06;96.33;;;54.15;;
56680;SDS011;42558;52.388;13.390;2024-03-02T05:36:36;97.09;;;53.20;;
56680;SDS011;42558;52.388;13.390;2024-03-02T05:39:08;97.66;;;53.77;;
56680;SDS011;42558;52.388;13.390;2024-03-02T05:41:40;97.09;;;54.72;;
56680;SDS011;42558;52.388;13.390;2024-03-02T05:44:09;88.35;;;53.01;;
56680;SDS011;42558;52.388;13.390;2024-03-02T05:46:39;98.99;;;56.62;;
56680;SDS011;42558;52.388;13.390;2024-03-02T05:49:10;107.35;;;58.71;;
56680;SDS011;42558;52.388;13.390;2024-03-02T05:51:40;105.64;;;59.09;;
56680;SDS011;42558;52.388;13.390;2024-03-02T05:54:11;106.21;;;56.05;;
56680;SDS011;42558;52.388;13.390;2024-03-02T05:56:41;104.69;;;56.81;;
56680;SDS011;42558;52.388;13.390;2024-03-02T05:59:11;101.46;;;57.38;;
56680;SDS011;42558;52.388;13.390;2024-03-02T06:04:19;110.39;;;57.95;;
56680;SDS011;42558;52.388;13.390;2024-03-02T06:06:47;105.83;;;59.09;;
56680;SDS011;42558;52.388;13.390;2024-03-02T06:09:19;106.02;;;54.15;;
56680;SDS011;42558;52.388;13.390;2024-03-02T06:11:50;110.01;;;58.52;;
56680;SDS011;42558;52.388;13.390;2024-03-02T06:14:19;108.49;;;59.09;;
56680;SDS011;42558;52.388;13.390;2024-03-02T06:16:49;102.41;;;56.05;;
56680;SDS011;42558;52.388;13.390;2024-03-02T06:19:19;97.85;;;55.10;;
56680;SDS011;42558;52.388;13.390;2024-03-02T06:21:49;117.42;;;59.47;;
56680;SDS011;42558;52.388;13.390;2024-03-02T06:24:19;113.05;;;60.42;;
56680;SDS011;42558;52.388;13.390;2024-03-02T06:26:49;109.25;;;59.66;;
56680;SDS011;42558;52.388;13.390;2024-03-02T06:29:18;108.30;;;59.28;;
56680;SDS011;42558;52.388;13.390;2024-03-02T06:31:48;112.29;;;59.85;;
56680;SDS011;42558;52.388;13.390;2024-03-02T06:34:22;102.22;;;59.09;;
56680;SDS011;42558;52.388;13.390;2024-03-02T06:36:52;103.93;;;57.57;;
56680;SDS011;42558;52.388;13.390;2024-03-02T06:39:22;115.33;;;57.95;;
56680;SDS011;42558;52.388;13.390;2024-03-02T06:41:52;108.49;;;57.57;;
56680;SDS011;42558;52.388;13.390;2024-03-02T06:44:20;106.40;;;57.95;;
56680;SDS011;42558;52.388;13.390;2024-03-02T06:46:48;115.52;;;61.75;;
56680;SDS011;42558;52.388;13.390;2024-03-02T06:49:18;110.77;;;58.52;;
56680;SDS011;42558;52.388;13.390;2024-03-02T06:51:47;111.15;;;62.32;;
56680;SDS011;42558;52.388;13.390;2024-03-02T06:54:14;101.84;;;56.81;;
56680;SDS011;42558;52.388;13.390;2024-03-02T06:56:42;117.42;;;61.75;;
56680;SDS011;42558;52.388;13.390;2024-03-02T06:59:10;113.43;;;58.14;;
56680;SDS011;42558;52.388;13.390;2024-03-02T07:01:38;117.23;;;61.75;;
56680;SDS011;42558;52.388;13.390;2024-03-02T07:04:06;108.68;;;57.00;;
56680;SDS011;42558;52.388;13.390;2024-03-02T07:06:34;106.97;;;56.62;;
56680;SDS011;42558;52.388;13.390;2024-03-02T07:09:04;111.53;;;61.56;;
56680;SDS011;42558;52.388;13.390;2024-03-02T07:11:34;116.09;;;59.09;;
56680;SDS011;42558;52.388;13.390;2024-03-02T07:14:04;110.96;;;59.09;;
56680;SDS011;42558;52.388;13.390;2024-03-02T07:16:34;106.78;;;57.19;;
56680;SDS011;42558;52.388;13.390;2024-03-02T07:19:08;122.17;;;64.60;;
56680;SDS011;42558;52.388;13.390;2024-03-02T07:21:38;111.15;;;59.47;;
56680;SDS011;42558;52.388;13.390;2024-03-02T07:24:08;122.93;;;58.14;;
56680;SDS011;42558;52.388;13.390;2024-03-02T07:26:42;110.77;;;55.67;;
56680;SDS011;42558;52.388;13.390;2024-03-02T07:29:15;113.05;;;59.47;;
56680;SDS011;42558;52.388;13.390;2024-03-02T07:31:45;109.44;;;59.09;;
56680;SDS011;42558;52.388;13.390;2024-03-02T07:34:15;116.85;;;61.56;;
56680;SDS011;42558;52.388;13.390;2024-03-02T07:36:45;124.07;;;60.42;;
56680;SDS011;42558;52.388;13.390;2024-03-02T07:39:15;117.42;;;61.75;;
56680;SDS011;42558;52.388;13.390;2024-03-02T07:41:46;115.71;;;64.98;;
56680;SDS011;42558;52.388;13.390;2024-03-02T07:44:16;109.82;;;59.47;;
56680;SDS011;42558;52.388;13.390;2024-03-02T07:46:49;110.39;;;57.76;;
56680;SDS011;42558;52.388;13.390;2024-03-02T07:49:21;114.38;;;59.85;;
56680;SDS011;42558;52.388;13.390;2024-03-02T07:51:51;119.51;;;62.51;;
56680;SDS011;42558;52.388;13.390;2024-03-02T07:54:21;112.29;;;60.80;;
56680;SDS011;42558;52.388;13.390;2024-03-02T07:56:51;114.38;;;59.66;;
56680;SDS011;42558;52.388;13.390;2024-03-02T07:59:21;122.93;;;60.61;;
56680;SDS011;42558;52.388;13.390;2024-03-02T08:01:52;104.88;;;58.14;;
56680;SDS011;42558;52.388;13.390;2024-03-02T08:04:21;110.39;;;58.71;;
56680;SDS011;42558;52.388;13.390;2024-03-02T08:06:52;110.39;;;58.71;;
56680;SDS011;42558;52.388;13.390;2024-03-02T08:09:24;102.22;;;56.24;;
56680;SDS011;42558;52.388;13.390;2024-03-02T08:11:54;111.15;;;59.85;;
56680;SDS011;42558;52.388;13.390;2024-03-02T08:14:26;101.27;;;57.57;;
56680;SDS011;42558;52.388;13.390;2024-03-02T08:16:56;106.21;;;57.76;;
56680;SDS011;42558;52.388;13.390;2024-03-02T08:19:26;104.88;;;57.57;;
56680;SDS011;42558;52.388;13.390;2024-03-02T08:21:56;102.03;;;55.10;;
56680;SDS011;42558;52.388;13.390;2024-03-02T08:24:29;105.83;;;58.14;;
56680;SDS011;42558;52.388;13.390;2024-03-02T08:26:59;106.21;;;58.33;;
56680;SDS011;42558;52.388;13.390;2024-03-02T08:29:30;103.17;;;53.96;;
56680;SDS011;42558;52.388;13.390;2024-03-02T08:32:01;101.65;;;55.10;;
56680;SDS011;42558;52.388;13.390;2024-03-02T08:34:30;96.90;;;53.39;;
56680;SDS011;42558;52.388;13.390;2024-03-02T08:37:02;100.89;;;54.53;;
56680;SDS011;42558;52.388;13.390;2024-03-02T08:39:32;102.22;;;55.67;;
56680;SDS011;42558;52.388;13.390;2024-03-02T08:42:02;100.51;;;56.62;;
56680;SDS011;42558;52.388;13.390;2024-03-02T08:44:34;102.41;;;57.95;;
56680;SDS011;42558;52.388;13.390;2024-03-02T08:47:04;100.32;;;53.96;;
56680;SDS011;42558;52.388;13.390;2024-03-02T08:49:35;100.70;;;53.39;;
56680;SDS011;42558;52.388;13.390;2024-03-02T08:52:05;99.56;;;51.30;;
56680;SDS011;42558;52.388;13.390;2024-03-02T08:54:35;97.85;;;53.01;;
56680;SDS011;42558;52.388;13.390;2024-03-02T08:57:05;99.56;;;52.44;;
56680;SDS011;42558;52.388;13.390;2024-03-02T08:59:37;98.23;;;53.58;;
56680;SDS011;42558;52.388;13.390;2024-03-02T09:02:07;90.63;;;49.59;;
56680;SDS011;42558;52.388;13.390;2024-03-02T09:04:37;88.92;;;50.54;;
56680;SDS011;42558;52.388;13.390;2024-03-02T09:07:07;91.58;;;49.40;;
56680;SDS011;42558;52.388;13.390;2024-03-02T09:09:37;102.98;;;53.96;;
56680;SDS011;42558;52.388;13.390;2024-03-02T09:12:08;89.87;;;49.78;;
56680;SDS011;42558;52.388;13.390;2024-03-02T09:14:36;92.34;;;51.68;;
56680;SDS011;42558;52.388;13.390;2024-03-02T09:17:07;88.16;;;51.11;;
56680;SDS011;42558;52.388;13.390;2024-03-02T09:19:39;85.31;;;48.45;;
56680;SDS011;42558;52.388;13.390;2024-03-02T09:22:09;91.20;;;48.64;;
56680;SDS011;42558;52.388;13.390;2024-03-02T09:24:39;83.79;;;47.12;;
56680;SDS011;42558;52.388;13.390;2024-03-02T09:27:09;85.69;;;47.12;;
56680;SDS011;42558;52.388;13.390;2024-03-02T09:29:39;82.65;;;47.31;;
56680;SDS011;42558;52.388;13.390;2024-03-02T09:32:12;86.26;;;47.88;;
56680;SDS011;42558;52.388;13.390;2024-03-02T09:34:43;75.81;;;44.46;;
56680;SDS011;42558;52.388;13.390;2024-03-02T09:37:13;85.50;;;46.55;;
56680;SDS011;42558;52.388;13.390;2024-03-02T09:39:44;79.61;;;44.84;;
56680;SDS011;42558;52.388;13.390;2024-03-02T09:42:14;82.84;;;46.17;;
56680;SDS011;42558;52.388;13.390;2024-03-02T09:44:45;82.84;;;44.65;;
56680;SDS011;42558;52.388;13.390;2024-03-02T09:47:15;80.37;;;42.56;;
56680;SDS011;42558;52.388;13.390;2024-03-02T09:49:45;78.09;;;43.51;;
56680;SDS011;42558;52.388;13.390;2024-03-02T09:52:16;73.91;;;44.27;;
56680;SDS011;42558;52.388;13.390;2024-03-02T09:54:47;76.38;;;42.75;;
56680;SDS011;42558;52.388;13.390;2024-03-02T09:57:18;69.73;;;40.09;;
56680;SDS011;42558;52.388;13.390;2024-03-02T09:59:48;74.10;;;42.37;;
56680;SDS011;42558;52.388;13.390;2024-03-02T10:02:18;70.68;;;41.23;;
56680;SDS011;42558;52.388;13.390;2024-03-02T10:04:49;68.02;;;40.85;;
56680;SDS011;42558;52.388;13.390;2024-03-02T10:07:19;72.39;;;40.66;;
56680;SDS011;42558;52.388;13.390;2024-03-02T10:09:49;73.91;;;42.75;;
56680;SDS011;42558;52.388;13.390;2024-03-02T10:12:19;74.10;;;40.09;;
56680;SDS011;42558;52.388;13.390;2024-03-02T10:14:49;67.83;;;38.19;;
56680;SDS011;42558;52.388;13.390;2024-03-02T10:17:21;69.16;;;40.28;;
56680;SDS011;42558;52.388;13.390;2024-03-02T10:19:50;69.54;;;40.28;;
56680;SDS011;42558;52.388;13.390;2024-03-02T10:22:23;70.49;;;39.14;;
56680;SDS011;42558;52.388;13.390;2024-03-02T10:24:53;67.83;;;41.04;;
56680;SDS011;42558;52.388;13.390;2024-03-02T10:27:28;66.12;;;38.57;;
56680;SDS011;42558;52.388;13.390;2024-03-02T10:29:59;67.83;;;39.90;;
56680;SDS011;42558;52.388;13.390;2024-03-02T10:32:29;70.11;;;39.71;;
56680;SDS011;42558;52.388;13.390;2024-03-02T10:34:59;62.32;;;37.81;;
56680;SDS011;42558;52.388;13.390;2024-03-02T10:37:29;67.26;;;38.00;;
56680;SDS011;42558;52.388;13.390;2024-03-02T10:40:05;62.51;;;37.43;;
56680;SDS011;42558;52.388;13.390;2024-03-02T10:42:41;63.65;;;38.19;;
56680;SDS011;42558;52.388;13.390;2024-03-02T10:45:15;61.75;;;38.57;;
56680;SDS011;42558;52.388;13.390;2024-03-02T10:47:47;62.89;;;37.81;;
56680;SDS011;42558;52.388;13.390;2024-03-02T10:50:17;62.32;;;38.19;;
56680;SDS011;42558;52.388;13.390;2024-03-02T10:52:47;65.36;;;39.33;;
56680;SDS011;42558;52.388;13.390;2024-03-02T10:55:17;68.40;;;38.38;;
56680;SDS011;42558;52.388;13.390;2024-03-02T10:57:52;61.18;;;36.48;;
56680;SDS011;42558;52.388;13.390;2024-03-02T11:00:25;63.27;;;37.81;;
56680;SDS011;42558;52.388;13.390;2024-03-02T11:03:05;61.18;;;36.86;;
56680;SDS011;42558;52.388;13.390;2024-03-02T11:05:44;66.31;;;37.24;;
56680;SDS011;42558;52.388;13.390;2024-03-02T11:08:18;64.22;;;38.95;;
56680;SDS011;42558;52.388;13.390;2024-03-02T11:10:57;60.42;;;39.14;;
56680;SDS011;42558;52.388;13.390;2024-03-02T11:13:32;61.56;;;37.24;;
56680;SDS011;42558;52.388;13.390;2024-03-02T11:16:09;60.99;;;35.15;;
56680;SDS011;42558;52.388;13.390;2024-03-02T11:18:46;59.85;;;35.15;;
56680;SDS011;42558;52.388;13.390;2024-03-02T11:21:19;60.80;;;36.67;;
56680;SDS011;42558;52.388;13.390;2024-03-02T11:23:50;57.00;;;35.53;;
56680;SDS011;42558;52.388;13.390;2024-03-02T11:26:20;55.29;;;34.20;;
56680;SDS011;42558;52.388;13.390;2024-03-02T11:28:52;54.34;;;32.30;;
56680;SDS011;42558;52.388;13.390;2024-03-02T11:31:22;47.31;;;31.92;;
56680;SDS011;42558;52.388;13.390;2024-03-02T11:33:52;57.57;;;35.15;;
56680;SDS011;42558;52.388;13.390;2024-03-02T11:36:21;59.85;;;34.96;;
56680;SDS011;42558;52.388;13.390;2024-03-02T11:38:51;52.06;;;31.35;;
56680;SDS011;42558;52.388;13.390;2024-03-02T11:41:23;52.06;;;31.35;;
56680;SDS011;42558;52.388;13.390;2024-03-02T11:43:54;46.17;;;30.40;;
56680;SDS011;42558;52.388;13.390;2024-03-02T11:46:25;52.44;;;31.73;;
56680;SDS011;42558;52.388;13.390;2024-03-02T11:48:55;53.39;;;32.87;;
56680;SDS011;42558;52.388;13.390;2024-03-02T11:51:26;53.20;;;32.30;;
56680;SDS011;42558;52.388;13.390;2024-03-02T11:53:58;48.07;;;31.16;;
56680;SDS011;42558;52.388;13.390;2024-03-02T11:56:31;49.78;;;29.83;;
56680;SDS011;42558;52.388;13.390;2024-03-02T11:59:01;46.17;;;30.59;;
56680;SDS011;42558;52.388;13.390;2024-03-02T12:01:34;53.01;;;33.82;;
56680;SDS011;42558;52.388;13.390;2024-03-02T12:04:06;52.25;;;30.40;;
56680;SDS011;42558;52.388;13.390;2024-03-02T12:06:37;47.69;;;30.21;;
56680;SDS011;42558;52.388;13.390;2024-03-02T12:09:09;47.12;;;29.83;;
56680;SDS011;42558;52.388;13.390;2024-03-02T12:11:44;44.46;;;29.07;;
56680;SDS011;42558;52.388;13.390;2024-03-02T12:14:14;48.64;;;32.11;;
56680;SDS011;42558;52.388;13.390;2024-03-02T12:16:44;56.62;;;31.16;;
56680;SDS011;42558;52.388;13.390;2024-03-02T12:19:14;54.91;;;32.11;;
56680;SDS011;42558;52.388;13.390;2024-03-02T12:21:45;54.34;;;31.73;;
56680;SDS011;42558;52.388;13.390;2024-03-02T12:24:15;53.20;;;32.30;;
56680;SDS011;42558;52.388;13.390;2024-03-02T12:26:46;50.54;;;31.54;;
56680;SDS011;42558;52.388;13.390;2024-03-02T12:29:20;52.82;;;31.92;;
56680;SDS011;42558;52.388;13.390;2024-03-02T12:31:52;52.63;;;32.11;;
56680;SDS011;42558;52.388;13.390;2024-03-02T12:34:22;53.58;;;33.44;;
56680;SDS011;42558;52.388;13.390;2024-03-02T12:36:50;55.29;;;32.11;;
56680;SDS011;42558;52.388;13.390;2024-03-02T12:39:22;56.24;;;33.82;;
56680;SDS011;42558;52.388;13.390;2024-03-02T12:41:53;50.35;;;31.35;;
56680;SDS011;42558;52.388;13.390;2024-03-02T12:44:22;51.30;;;31.16;;
56680;SDS011;42558;52.388;13.390;2024-03-02T12:46:52;50.16;;;30.78;;
56680;SDS011;42558;52.388;13.390;2024-03-02T12:49:27;48.26;;;29.64;;
56680;SDS011;42558;52.388;13.390;2024-03-02T12:51:58;49.21;;;28.50;;
56680;SDS011;42558;52.388;13.390;2024-03-02T12:54:28;42.56;;;27.55;;
56680;SDS011;42558;52.388;13.390;2024-03-02T12:56:58;51.87;;;29.07;;
56680;SDS011;42558;52.388;13.390;2024-03-02T12:59:26;45.79;;;29.83;;
56680;SDS011;42558;52.388;13.390;2024-03-02T13:01:56;49.78;;;31.92;;
56680;SDS011;42558;52.388;13.390;2024-03-02T13:04:30;53.20;;;30.97;;
56680;SDS011;42558;52.388;13.390;2024-03-02T13:07:00;45.22;;;28.31;;
56680;SDS011;42558;52.388;13.390;2024-03-02T13:09:32;45.03;;;27.36;;
56680;SDS011;42558;52.388;13.390;2024-03-02T13:12:04;42.56;;;26.79;;
56680;SDS011;42558;52.388;13.390;2024-03-02T13:14:35;42.37;;;25.84;;
56680;SDS011;42558;52.388;13.390;2024-03-02T13:17:08;46.74;;;27.36;;
56680;SDS011;42558;52.388;13.390;2024-03-02T13:19:38;42.94;;;25.84;;
56680;SDS011;42558;52.388;13.390;2024-03-02T13:22:08;38.57;;;26.22;;
56680;SDS011;42558;52.388;13.390;2024-03-02T13:24:38;39.90;;;24.51;;
56680;SDS011;42558;52.388;13.390;2024-03-02T13:27:08;40.09;;;23.75;;
56680;SDS011;42558;52.388;13.390;2024-03-02T13:29:38;42.56;;;25.08;;
56680;SDS011;42558;52.388;13.390;2024-03-02T13:32:08;39.71;;;24.70;;
56680;SDS011;42558;52.388;13.390;2024-03-02T13:34:39;34.01;;;21.66;;
56680;SDS011;42558;52.388;13.390;2024-03-02T13:37:09;38.00;;;23.18;;
56680;SDS011;42558;52.388;13.390;2024-03-02T13:39:39;36.10;;;21.85;;
56680;SDS011;42558;52.388;13.390;2024-03-02T13:42:12;32.87;;;21.28;;
56680;SDS011;42558;52.388;13.390;2024-03-02T13:44:45;30.21;;;19.76;;
56680;SDS011;42558;52.388;13.390;2024-03-02T13:47:17;34.01;;;20.52;;
56680;SDS011;42558;52.388;13.390;2024-03-02T13:49:46;31.73;;;19.19;;
56680;SDS011;42558;52.388;13.390;2024-03-02T13:52:18;36.10;;;20.14;;
56680;SDS011;42558;52.388;13.390;2024-03-02T13:54:48;29.64;;;18.24;;
56680;SDS011;42558;52.388;13.390;2024-03-02T13:57:18;27.36;;;17.86;;
56680;SDS011;42558;52.388;13.390;2024-03-02T13:59:53;25.84;;;16.53;;
56680;SDS011;42558;52.388;13.390;2024-03-02T14:02:24;27.93;;;16.15;;
56680;SDS011;42558;52.388;13.390;2024-03-02T14:04:54;27.36;;;17.67;;
56680;SDS011;42558;52.388;13.390;2024-03-02T14:07:23;30.78;;;16.53;;
56680;SDS011;42558;52.388;13.390;2024-03-02T14:09:53;25.08;;;16.15;;
56680;SDS011;42558;52.388;13.390;2024-03-02T14:12:23;22.80;;;13.30;;
56680;SDS011;42558;52.388;13.390;2024-03-02T14:14:53;23.37;;;14.63;;
56680;SDS011;42558;52.388;13.390;2024-03-02T14:17:28;26.03;;;15.58;;
56680;SDS011;42558;52.388;13.390;2024-03-02T14:19:58;26.41;;;16.15;;
56680;SDS011;42558;52.388;13.390;2024-03-02T14:22:28;26.98;;;15.96;;
56680;SDS011;42558;52.388;13.390;2024-03-02T14:24:58;22.80;;;13.87;;
56680;SDS011;42558;52.388;13.390;2024-03-02T14:27:28;23.94;;;14.82;;